Time;durP1;ratioP1;P1;durP2;ratioP2;P2;SDS_P1;SDS_P2;PMS_P1;PMS_P2;Temp;Humidity;BMP_temperature;BMP_pressure;BME280_temperature;BME280_humidity;BME280_pressure;Samples;Min_cycle;Max_cycle;Signal;HPM_P1;HPM_P2
2022/11/08 00:02:03;;;;;;;18.00;12.27;;;;;;;;;;6255523;28;20232;-67
2022/11/08 00:15:03;;;;;;;21.40;12.15;;;;;;;;;;6248800;28;20293;-67
2022/11/08 00:18:07;;;;;;;18.55;12.57;;;;;;;;;;6253783;28;20111;-68
2022/11/08 00:21:08;;;;;;;;;;;;;;;;;;6252865;28;20115;-67
2022/11/08 00:24:10;;;;;;;18.92;11.48;;;;;;;;;;6251331;28;19916;-66
2022/11/08 00:27:13;;;;;;;16.65;10.88;;;;;;;;;;6253136;28;20348;-68
2022/11/08 00:30:14;;;;;;;17.27;11.03;;;;;;;;;;6251326;28;20053;-68
2022/11/08 00:33:17;;;;;;;18.05;11.98;;;;;;;;;;6250152;28;20064;-68
2022/11/08 00:36:19;;;;;;;19.00;11.70;;;;;;;;;;6247983;28;20095;-67
2022/11/08 00:39:21;;;;;;;20.20;12.02;;;;;;;;;;6250293;28;20049;-68
2022/11/08 00:42:22;;;;;;;21.98;11.98;;;;;;;;;;6249199;28;20100;-66
2022/11/08 00:45:24;;;;;;;16.75;11.80;;;;;;;;;;6251800;28;20065;-67
2022/11/08 00:48:27;;;;;;;21.33;13.13;;;;;;;;;;6251901;28;20095;-67
2022/11/08 00:51:28;;;;;;;21.00;13.13;;;;;;;;;;6250482;28;20052;-67
2022/11/08 00:54:30;;;;;;;18.08;12.10;;;;;;;;;;6252761;28;20390;-67
2022/11/08 00:57:32;;;;;;;20.65;13.60;;;;;;;;;;6249079;28;20049;-66
2022/11/08 01:00:33;;;;;;;20.70;12.82;;;;;;;;;;6258002;28;20045;-67
2022/11/08 01:03:36;;;;;;;21.67;12.75;;;;;;;;;;6250090;28;20112;-67
2022/11/08 01:06:38;;;;;;;22.42;13.55;;;;;;;;;;6245793;28;20116;-67
2022/11/08 01:09:40;;;;;;;20.52;12.45;;;;;;;;;;6247947;28;20099;-67
2022/11/08 01:12:41;;;;;;;19.00;12.13;;;;;;;;;;6252800;28;20046;-67
2022/11/08 01:15:45;;;;;;;17.83;10.80;;;;;;;;;;6248897;28;20057;-66
2022/11/08 01:18:49;;;;;;;19.92;12.00;;;;;;;;;;6248816;28;20056;-66
2022/11/08 01:21:50;;;;;;;21.08;12.18;;;;;;;;;;6250399;28;20103;-67
2022/11/08 01:24:52;;;;;;;19.00;11.98;;;;;;;;;;6247132;28;20284;-65
2022/11/08 01:27:54;;;;;;;17.23;10.93;;;;;;;;;;6250499;28;20276;-67
2022/11/08 01:30:55;;;;;;;20.67;12.30;;;;;;;;;;6249869;28;20060;-67
2022/11/08 01:34:00;;;;;;;18.33;11.73;;;;;;;;;;6250846;28;20047;-67
2022/11/08 01:37:02;;;;;;;20.75;12.65;;;;;;;;;;6249976;28;20079;-67
2022/11/08 01:40:05;;;;;;;17.85;12.05;;;;;;;;;;6247941;28;20434;-67
2022/11/08 01:43:26;;;;;;;19.20;12.10;;;;;;;;;;6253208;28;20376;-65
2022/11/08 01:46:44;;;;;;;19.95;12.48;;;;;;;;;;6249264;28;20053;-66
2022/11/08 01:49:47;;;;;;;18.45;11.10;;;;;;;;;;6249525;28;20083;-67
2022/11/08 01:52:51;;;;;;;17.60;11.35;;;;;;;;;;6252367;28;20076;-67
2022/11/08 01:55:53;;;;;;;17.80;11.55;;;;;;;;;;6246473;28;20049;-67
2022/11/08 01:58:56;;;;;;;18.52;11.63;;;;;;;;;;6249328;28;20251;-67
2022/11/08 02:01:58;;;;;;;19.03;12.17;;;;;;;;;;6258890;28;20123;-68
2022/11/08 02:05:01;;;;;;;19.65;11.52;;;;;;;;;;6248883;28;20115;-67
2022/11/08 02:08:06;;;;;;;20.35;11.98;;;;;;;;;;6252733;28;20349;-67
2022/11/08 02:11:08;;;;;;;18.90;11.60;;;;;;;;;;6255653;28;20057;-67
2022/11/08 02:14:10;;;;;;;16.17;11.60;;;;;;;;;;6252987;28;20068;-67
2022/11/08 02:17:13;;;;;;;19.67;11.57;;;;;;;;;;6263813;28;20064;-67
2022/11/08 02:20:16;;;;;;;16.02;11.63;;;;;;;;;;6256705;28;20049;-66
2022/11/08 02:23:23;;;;;;;20.27;11.17;;;;;;;;;;6257499;28;20049;-67
2022/11/08 02:26:29;;;;;;;21.15;12.13;;;;;;;;;;6262644;28;20714;-67
2022/11/08 02:29:33;;;;;;;19.20;11.70;;;;;;;;;;6266409;28;20049;-67
2022/11/08 02:32:38;;;;;;;18.92;12.15;;;;;;;;;;6254204;28;20056;-67
2022/11/08 02:35:40;;;;;;;18.67;11.48;;;;;;;;;;6254530;28;20092;-67
2022/11/08 02:38:45;;;;;;;21.38;12.00;;;;;;;;;;6257676;28;20094;-68
2022/11/08 02:41:48;;;;;;;18.20;11.50;;;;;;;;;;6260596;28;20053;-67
2022/11/08 02:44:49;;;;;;;19.30;12.18;;;;;;;;;;6258116;28;20131;-68
2022/11/08 02:47:51;;;;;;;17.65;11.77;;;;;;;;;;6256675;28;20045;-67
2022/11/08 02:50:52;;;;;;;18.90;11.85;;;;;;;;;;6256081;28;20102;-67
2022/11/08 02:53:54;;;;;;;19.58;12.98;;;;;;;;;;6255578;28;20052;-66
2022/11/08 02:56:57;;;;;;;17.42;11.80;;;;;;;;;;6252138;28;20244;-67
2022/11/08 02:59:58;;;;;;;18.08;11.50;;;;;;;;;;6251953;28;20272;-67
2022/11/08 03:03:00;;;;;;;21.17;12.95;;;;;;;;;;6251976;28;20082;-67
2022/11/08 03:06:02;;;;;;;18.23;11.90;;;;;;;;;;6253808;28;20103;-67
2022/11/08 03:09:03;;;;;;;16.92;10.95;;;;;;;;;;6249327;28;20260;-67
2022/11/08 03:12:07;;;;;;;19.00;11.80;;;;;;;;;;6252391;28;20062;-67
2022/11/08 03:15:10;;;;;;;16.30;10.52;;;;;;;;;;6253092;28;20063;-67
2022/11/08 03:18:12;;;;;;;16.15;10.93;;;;;;;;;;6253390;28;20123;-64
2022/11/08 03:21:13;;;;;;;17.23;9.95;;;;;;;;;;6254444;28;20059;-67
2022/11/08 03:24:15;;;;;;;16.35;10.27;;;;;;;;;;6252048;28;20049;-67
2022/11/08 03:27:18;;;;;;;15.30;10.48;;;;;;;;;;6251040;28;20096;-67
2022/11/08 03:30:20;;;;;;;14.85;9.70;;;;;;;;;;6252189;28;20073;-64
2022/11/08 03:33:22;;;;;;;16.02;10.40;;;;;;;;;;6253348;28;20384;-66
2022/11/08 03:36:24;;;;;;;14.45;9.25;;;;;;;;;;6256284;28;20091;-67
2022/11/08 03:39:25;;;;;;;12.23;8.73;;;;;;;;;;6253489;28;20064;-67
2022/11/08 03:42:28;;;;;;;13.48;9.02;;;;;;;;;;6254541;28;20113;-67
2022/11/08 03:45:30;;;;;;;12.45;8.95;;;;;;;;;;6248286;28;20050;-67
2022/11/08 03:48:31;;;;;;;12.13;8.73;;;;;;;;;;6252182;28;20042;-67
2022/11/08 03:51:33;;;;;;;12.68;9.18;;;;;;;;;;6249168;28;20059;-67
2022/11/08 03:54:35;;;;;;;12.35;8.45;;;;;;;;;;6250023;28;20391;-67
2022/11/08 03:57:38;;;;;;;13.48;8.73;;;;;;;;;;6251956;28;20053;-67
2022/11/08 04:00:40;;;;;;;11.53;8.23;;;;;;;;;;6249968;28;20086;-64
2022/11/08 04:03:42;;;;;;;11.07;8.02;;;;;;;;;;6253413;28;20339;-66
2022/11/08 04:06:43;;;;;;;8.63;7.22;;;;;;;;;;6251105;28;20064;-65
2022/11/08 04:09:45;;;;;;;10.90;7.40;;;;;;;;;;6254149;28;20155;-66
2022/11/08 04:16:08;;;;;;;11.13;7.68;;;;;;;;;;6254358;28;20057;-66
2022/11/08 04:22:28;;;;;;;10.02;7.60;;;;;;;;;;6253035;28;20048;-67
2022/11/08 04:25:30;;;;;;;9.48;6.53;;;;;;;;;;6251506;28;20771;-67
2022/11/08 04:28:35;;;;;;;9.77;6.47;;;;;;;;;;6250342;28;20100;-67
2022/11/08 04:31:37;;;;;;;9.32;7.10;;;;;;;;;;6248913;28;20103;-65
2022/11/08 04:34:38;;;;;;;10.63;6.72;;;;;;;;;;6250674;28;20106;-67
2022/11/08 04:37:40;;;;;;;12.40;7.05;;;;;;;;;;6253083;28;20391;-67
2022/11/08 04:40:41;;;;;;;9.05;6.38;;;;;;;;;;6249566;28;20131;-67
2022/11/08 04:43:44;;;;;;;10.13;7.00;;;;;;;;;;6252892;28;20202;-67
2022/11/08 04:46:46;;;;;;;11.37;6.47;;;;;;;;;;6249809;28;20658;-67
2022/11/08 04:49:48;;;;;;;8.88;6.05;;;;;;;;;;6249477;28;20057;-67
2022/11/08 04:52:51;;;;;;;10.07;6.30;;;;;;;;;;6251223;28;20076;-67
2022/11/08 04:55:59;;;;;;;7.82;5.85;;;;;;;;;;6256706;28;20063;-68
2022/11/08 04:59:02;;;;;;;10.38;6.53;;;;;;;;;;6252750;28;20063;-68
2022/11/08 05:02:03;;;;;;;10.77;6.43;;;;;;;;;;6249779;28;20049;-67
2022/11/08 05:05:06;;;;;;;9.75;6.30;;;;;;;;;;6249719;28;20057;-68
2022/11/08 05:08:08;;;;;;;9.20;6.97;;;;;;;;;;6248652;28;20053;-69
2022/11/08 05:11:11;;;;;;;10.85;6.63;;;;;;;;;;6250386;28;20049;-65
2022/11/08 05:14:14;;;;;;;9.57;7.47;;;;;;;;;;6254440;28;20049;-66
2022/11/08 05:17:16;;;;;;;10.48;6.60;;;;;;;;;;6248529;28;20287;-67
2022/11/08 05:23:37;;;;;;;10.90;6.32;;;;;;;;;;6250781;28;20260;-68
2022/11/08 05:26:41;;;;;;;9.15;6.65;;;;;;;;;;6251572;28;20099;-68
2022/11/08 05:29:44;;;;;;;8.27;6.15;;;;;;;;;;6250669;28;20154;-65
2022/11/08 05:32:45;;;;;;;9.73;6.70;;;;;;;;;;6250021;28;20156;-65
2022/11/08 05:35:47;;;;;;;8.00;6.20;;;;;;;;;;6250028;28;20126;-64
2022/11/08 05:38:48;;;;;;;10.82;6.07;;;;;;;;;;6248507;28;20057;-68
2022/11/08 05:41:50;;;;;;;9.48;5.95;;;;;;;;;;6249793;28;20101;-67
2022/11/08 05:44:53;;;;;;;8.75;7.18;;;;;;;;;;6254417;28;20037;-70
2022/11/08 05:47:56;;;;;;;10.02;6.90;;;;;;;;;;6257409;28;20110;-69
2022/11/08 05:50:58;;;;;;;12.77;6.97;;;;;;;;;;6257907;28;20920;-69
2022/11/08 05:53:59;;;;;;;11.88;6.82;;;;;;;;;;6259680;28;20096;-68
2022/11/08 05:57:01;;;;;;;10.70;7.65;;;;;;;;;;6257688;28;20117;-69
2022/11/08 06:00:06;;;;;;;10.65;7.28;;;;;;;;;;6261555;28;20280;-66
2022/11/08 06:03:08;;;;;;;9.77;7.03;;;;;;;;;;6256367;28;20121;-67
2022/11/08 06:06:12;;;;;;;9.15;6.43;;;;;;;;;;6253008;28;20057;-67
2022/11/08 06:09:13;;;;;;;;;;;;;;;;;;6257333;28;20057;-67
2022/11/08 06:12:14;;;;;;;9.60;7.03;;;;;;;;;;6259385;28;20139;-67
2022/11/08 06:15:18;;;;;;;8.75;6.70;;;;;;;;;;6256569;28;20054;-66
2022/11/08 06:18:19;;;;;;;9.93;6.73;;;;;;;;;;6249716;28;20053;-66
2022/11/08 06:21:22;;;;;;;8.45;6.45;;;;;;;;;;6259325;28;20483;-67
2022/11/08 06:24:23;;;;;;;9.40;6.55;;;;;;;;;;6258153;28;20103;-67
2022/11/08 06:27:25;;;;;;;8.90;6.18;;;;;;;;;;6258713;28;20053;-67
2022/11/08 06:30:28;;;;;;;8.90;6.38;;;;;;;;;;6255204;28;20099;-65
2022/11/08 06:33:30;;;;;;;8.13;6.18;;;;;;;;;;6256047;28;20268;-65
2022/11/08 06:36:32;;;;;;;10.15;6.28;;;;;;;;;;6254024;28;20095;-67
2022/11/08 06:39:33;;;;;;;12.20;6.85;;;;;;;;;;6257909;28;20061;-67
2022/11/08 06:42:35;;;;;;;8.75;6.72;;;;;;;;;;6252118;28;20296;-68
2022/11/08 06:45:38;;;;;;;9.85;5.97;;;;;;;;;;6256537;28;20068;-67
2022/11/08 06:48:40;;;;;;;9.77;6.63;;;;;;;;;;6255304;28;20042;-66
2022/11/08 06:51:41;;;;;;;8.50;5.82;;;;;;;;;;6261065;28;20107;-65
2022/11/08 06:54:43;;;;;;;9.02;5.75;;;;;;;;;;6261923;28;20045;-67
2022/11/08 06:57:44;;;;;;;8.73;5.50;;;;;;;;;;6253027;28;20239;-66
2022/11/08 07:00:47;;;;;;;10.70;6.05;;;;;;;;;;6260912;28;20313;-67
2022/11/08 07:03:49;;;;;;;7.15;6.18;;;;;;;;;;6258939;28;20037;-67
2022/11/08 07:06:50;;;;;;;9.93;6.22;;;;;;;;;;6253294;28;20135;-67
2022/11/08 07:09:52;;;;;;;9.77;5.65;;;;;;;;;;6251120;28;20071;-66
2022/11/08 07:12:58;;;;;;;8.98;7.00;;;;;;;;;;6251195;28;20064;-66
2022/11/08 07:16:01;;;;;;;11.02;6.47;;;;;;;;;;6253152;28;20244;-65
2022/11/08 07:19:03;;;;;;;11.17;6.50;;;;;;;;;;6252746;28;20049;-66
2022/11/08 07:22:05;;;;;;;10.30;6.63;;;;;;;;;;6251802;28;20460;-66
2022/11/08 07:25:07;;;;;;;12.38;6.43;;;;;;;;;;6251255;28;20360;-67
2022/11/08 07:28:14;;;;;;;10.25;6.30;;;;;;;;;;6254355;28;20116;-64
2022/11/08 07:31:18;;;;;;;9.95;6.88;;;;;;;;;;6249939;28;20053;-67
2022/11/08 07:34:20;;;;;;;;;;;;;;;;;;6252525;28;20892;-67
2022/11/08 07:37:21;;;;;;;10.10;6.25;;;;;;;;;;6247593;28;19928;-67
2022/11/08 07:40:23;;;;;;;9.10;5.93;;;;;;;;;;6253264;28;20336;-67
2022/11/08 07:43:26;;;;;;;10.52;6.45;;;;;;;;;;6251724;28;20049;-66
2022/11/08 07:46:29;;;;;;;14.70;7.40;;;;;;;;;;6254275;28;20049;-67
2022/11/08 07:49:30;;;;;;;12.00;6.90;;;;;;;;;;6251048;28;20095;-66
2022/11/08 07:52:32;;;;;;;11.90;6.85;;;;;;;;;;6256256;28;20256;-67
2022/11/08 07:55:35;;;;;;;8.80;6.88;;;;;;;;;;6254450;28;20053;-67
2022/11/08 07:58:37;;;;;;;11.73;6.63;;;;;;;;;;6255580;28;20057;-67
2022/11/08 08:01:40;;;;;;;10.02;6.63;;;;;;;;;;6250028;28;20050;-66
2022/11/08 08:04:41;;;;;;;10.85;5.82;;;;;;;;;;6251944;28;20268;-66
2022/11/08 08:07:43;;;;;;;10.10;6.35;;;;;;;;;;6252021;28;20041;-66
2022/11/08 08:10:45;;;;;;;8.98;5.57;;;;;;;;;;6252563;28;20403;-67
2022/11/08 08:13:46;;;;;;;12.88;5.88;;;;;;;;;;6249254;28;20058;-67
2022/11/08 08:16:49;;;;;;;9.48;5.75;;;;;;;;;;6249936;28;20065;-66
2022/11/08 08:19:51;;;;;;;11.63;6.55;;;;;;;;;;6250951;28;20376;-66
2022/11/08 08:22:53;;;;;;;11.05;5.50;;;;;;;;;;6252063;28;20095;-65
2022/11/08 08:25:55;;;;;;;10.25;6.10;;;;;;;;;;6251480;28;20065;-66
2022/11/08 08:28:56;;;;;;;10.95;5.93;;;;;;;;;;6249658;28;20332;-65
2022/11/08 08:31:59;;;;;;;10.23;6.70;;;;;;;;;;6259353;28;20130;-66
2022/11/08 08:35:01;;;;;;;14.05;6.88;;;;;;;;;;6251494;28;20096;-65
2022/11/08 08:38:04;;;;;;;9.88;6.60;;;;;;;;;;6259799;28;20236;-65
2022/11/08 08:41:05;;;;;;;9.02;6.28;;;;;;;;;;6252175;28;20117;-62
2022/11/08 08:44:07;;;;;;;13.20;6.90;;;;;;;;;;6251287;28;20065;-66
2022/11/08 08:47:10;;;;;;;10.98;6.18;;;;;;;;;;6254417;28;20052;-65
2022/11/08 08:50:11;;;;;;;9.40;6.55;;;;;;;;;;6256226;28;20049;-66
2022/11/08 08:53:13;;;;;;;12.52;6.93;;;;;;;;;;6251541;28;20111;-65
2022/11/08 08:56:15;;;;;;;9.82;6.65;;;;;;;;;;6255681;28;20244;-65
2022/11/08 08:59:16;;;;;;;8.40;6.22;;;;;;;;;;6255783;28;20057;-65
2022/11/08 09:02:19;;;;;;;10.65;6.82;;;;;;;;;;6254014;28;20057;-65
2022/11/08 09:05:21;;;;;;;12.10;7.25;;;;;;;;;;6251855;28;20053;-66
2022/11/08 09:08:23;;;;;;;8.38;6.38;;;;;;;;;;6249739;28;20511;-66
2022/11/08 09:11:25;;;;;;;12.52;7.18;;;;;;;;;;6252158;28;20113;-66
2022/11/08 09:14:27;;;;;;;11.68;8.45;;;;;;;;;;6251826;28;20045;-65
2022/11/08 09:17:30;;;;;;;12.50;7.95;;;;;;;;;;6256654;28;20060;-62
2022/11/08 09:20:31;;;;;;;12.37;8.10;;;;;;;;;;6255997;28;20072;-66
2022/11/08 09:23:33;;;;;;;10.30;7.43;;;;;;;;;;6253525;28;20053;-65
2022/11/08 09:26:34;;;;;;;11.60;7.93;;;;;;;;;;6259429;28;20049;-65
2022/11/08 09:29:36;;;;;;;11.63;8.73;;;;;;;;;;6254927;28;20194;-68
2022/11/08 09:32:39;;;;;;;12.38;8.85;;;;;;;;;;6258904;28;20054;-67
2022/11/08 09:35:41;;;;;;;13.10;8.60;;;;;;;;;;6258128;28;20328;-67
2022/11/08 09:38:42;;;;;;;14.07;8.60;;;;;;;;;;6257482;28;20049;-65
2022/11/08 09:42:01;;;;;;;12.48;8.70;;;;;;;;;;6254467;28;20233;-64
2022/11/08 09:45:20;;;;;;;11.60;7.97;;;;;;;;;;6256147;28;20061;-66
2022/11/08 09:48:32;;;;;;;11.82;8.75;;;;;;;;;;6253500;28;20225;-67
2022/11/08 09:51:34;;;;;;;13.30;9.13;;;;;;;;;;6257272;28;20233;-65
2022/11/08 09:54:40;;;;;;;17.60;9.85;;;;;;;;;;6256732;28;20057;-65
2022/11/08 09:57:51;;;;;;;11.38;8.60;;;;;;;;;;6254622;28;20057;-65
2022/11/08 10:00:53;;;;;;;11.35;8.45;;;;;;;;;;6252345;28;20339;-64
2022/11/08 10:03:58;;;;;;;11.52;9.60;;;;;;;;;;6253500;28;20091;-65
2022/11/08 10:07:08;;;;;;;11.63;9.07;;;;;;;;;;6253675;28;20235;-64
2022/11/08 10:10:40;;;;;;;13.65;9.90;;;;;;;;;;6255361;28;20075;-65
2022/11/08 10:13:52;;;;;;;15.98;10.20;;;;;;;;;;6252052;28;20256;-65
2022/11/08 10:16:58;;;;;;;14.65;10.02;;;;;;;;;;6252961;28;20252;-65
2022/11/08 10:20:08;;;;;;;13.85;9.43;;;;;;;;;;6254661;28;20376;-65
2022/11/08 10:23:20;;;;;;;12.00;9.57;;;;;;;;;;6257958;28;20640;-64
2022/11/08 10:26:24;;;;;;;11.60;9.82;;;;;;;;;;6257041;28;20045;-65
2022/11/08 10:29:29;;;;;;;13.48;9.60;;;;;;;;;;6255105;28;20049;-65
2022/11/08 10:32:31;;;;;;;12.93;9.43;;;;;;;;;;6267389;28;20049;-65
2022/11/08 10:35:40;;;;;;;11.60;9.02;;;;;;;;;;6262377;28;20045;-65
2022/11/08 10:38:47;;;;;;;15.43;10.82;;;;;;;;;;6270651;28;20049;-65
2022/11/08 10:41:54;;;;;;;13.15;10.52;;;;;;;;;;6252530;28;20329;-66
2022/11/08 10:44:56;;;;;;;17.75;11.18;;;;;;;;;;6258020;28;20123;-66
2022/11/08 10:47:57;;;;;;;13.90;10.52;;;;;;;;;;6263479;28;20077;-66
2022/11/08 10:51:00;;;;;;;18.20;11.35;;;;;;;;;;6257190;28;20046;-66
2022/11/08 10:54:02;;;;;;;16.13;11.57;;;;;;;;;;6258475;28;20049;-64
2022/11/08 10:57:04;;;;;;;13.50;11.13;;;;;;;;;;6258353;28;20483;-66
2022/11/08 11:00:23;;;;;;;13.57;11.35;;;;;;;;;;6252448;28;20309;-65
2022/11/08 11:03:27;;;;;;;14.43;11.60;;;;;;;;;;6254382;28;20129;-66
2022/11/08 11:06:32;;;;;;;16.98;12.60;;;;;;;;;;6248990;28;20041;-67
2022/11/08 11:09:33;;;;;;;18.77;12.27;;;;;;;;;;6251586;28;20053;-67
2022/11/08 11:12:35;;;;;;;16.60;12.40;;;;;;;;;;6252013;28;20091;-63
2022/11/08 11:15:39;;;;;;;18.00;12.75;;;;;;;;;;6254573;28;20057;-65
2022/11/08 11:18:47;;;;;;;14.88;12.38;;;;;;;;;;6251127;28;20102;-66
2022/11/08 11:21:55;;;;;;;19.95;11.73;;;;;;;;;;6251722;28;20071;-66
2022/11/08 11:24:57;;;;;;;15.73;11.10;;;;;;;;;;6254466;28;20053;-66
2022/11/08 11:28:00;;;;;;;15.27;10.00;;;;;;;;;;6254170;28;20270;-66
2022/11/08 11:31:02;;;;;;;13.65;10.02;;;;;;;;;;6247954;28;20050;-66
2022/11/08 11:34:26;;;;;;;15.57;10.35;;;;;;;;;;6249299;28;20069;-67
2022/11/08 11:37:31;;;;;;;;;;;;;;;;;;6252766;28;20053;-66
2022/11/08 11:40:38;;;;;;;12.13;10.48;;;;;;;;;;6251985;28;19923;-65
2022/11/08 11:43:43;;;;;;;15.23;11.15;;;;;;;;;;6249939;28;20059;-66
2022/11/08 11:46:51;;;;;;;18.30;12.40;;;;;;;;;;6250316;28;20302;-66
2022/11/08 11:49:54;;;;;;;15.45;10.43;;;;;;;;;;6250590;28;20095;-66
2022/11/08 11:52:59;;;;;;;11.95;8.45;;;;;;;;;;6255492;28;20198;-66
2022/11/08 11:56:21;;;;;;;11.73;8.55;;;;;;;;;;6250062;28;20140;-67
2022/11/08 11:59:53;;;;;;;11.55;8.55;;;;;;;;;;6253141;28;20062;-67
2022/11/08 12:03:25;;;;;;;10.30;7.40;;;;;;;;;;6253420;28;20053;-69
2022/11/08 12:06:37;;;;;;;10.93;9.80;;;;;;;;;;6249297;28;20241;-69
2022/11/08 12:09:54;;;;;;;12.77;11.45;;;;;;;;;;6250816;28;20049;-69
2022/11/08 12:13:01;;;;;;;17.08;10.98;;;;;;;;;;6250160;28;20095;-69
2022/11/08 12:16:09;;;;;;;18.27;12.32;;;;;;;;;;6250455;28;20049;-67
2022/11/08 12:19:23;;;;;;;13.73;11.90;;;;;;;;;;6250263;28;20069;-67
2022/11/08 12:22:44;;;;;;;17.45;13.18;;;;;;;;;;6250494;28;20045;-67
2022/11/08 12:25:49;;;;;;;16.65;12.15;;;;;;;;;;6250478;28;20668;-69
2022/11/08 12:29:06;;;;;;;16.08;12.32;;;;;;;;;;6251977;28;20045;-67
2022/11/08 12:32:26;;;;;;;16.27;11.80;;;;;;;;;;6249040;28;20060;-67
2022/11/08 12:35:34;;;;;;;18.23;12.80;;;;;;;;;;6251266;28;20045;-67
2022/11/08 12:38:37;;;;;;;16.00;12.50;;;;;;;;;;6248477;28;20053;-66
2022/11/08 12:41:42;;;;;;;;;;;;;;;;;;6248280;28;20105;-67
2022/11/08 12:45:20;;;;;;;16.50;12.52;;;;;;;;;;6250672;28;20630;-67
2022/11/08 12:48:29;;;;;;;13.05;9.63;;;;;;;;;;6251222;28;20056;-67
2022/11/08 12:51:40;;;;;;;10.57;8.30;;;;;;;;;;6250664;28;20061;-67
2022/11/08 12:54:44;;;;;;;9.60;7.40;;;;;;;;;;6253821;28;20121;-67
2022/11/08 12:57:47;;;;;;;9.20;7.57;;;;;;;;;;6253989;28;20096;-68
2022/11/08 13:00:51;;;;;;;10.05;7.60;;;;;;;;;;6248898;28;20236;-67
2022/11/08 13:04:06;;;;;;;12.10;7.63;;;;;;;;;;6249995;28;20108;-66
2022/11/08 13:07:15;;;;;;;10.35;7.15;;;;;;;;;;6245109;28;20099;-69
2022/11/08 13:10:23;;;;;;;9.20;6.50;;;;;;;;;;6251206;28;20052;-71
2022/11/08 13:13:37;;;;;;;8.85;6.68;;;;;;;;;;6249773;28;20108;-70
2022/11/08 13:16:38;;;;;;;10.00;8.15;;;;;;;;;;6248638;28;20095;-70
2022/11/08 13:20:01;;;;;;;14.85;8.80;;;;;;;;;;6250955;28;20053;-70
2022/11/08 13:23:07;;;;;;;11.17;8.00;;;;;;;;;;6257779;28;20085;-70
2022/11/08 13:26:17;;;;;;;10.02;7.68;;;;;;;;;;6245598;28;20129;-67
2022/11/08 13:29:26;;;;;;;9.30;6.65;;;;;;;;;;6248235;28;20573;-66
2022/11/08 13:32:38;;;;;;;8.15;6.45;;;;;;;;;;6248706;28;20057;-66
2022/11/08 13:35:46;;;;;;;11.70;6.80;;;;;;;;;;6250147;28;20072;-65
2022/11/08 13:38:52;;;;;;;7.43;6.40;;;;;;;;;;6248203;28;20836;-64
2022/11/08 13:42:02;;;;;;;9.50;6.82;;;;;;;;;;6248668;28;20065;-64
2022/11/08 13:45:30;;;;;;;10.73;7.40;;;;;;;;;;6249379;28;20057;-65
2022/11/08 13:48:36;;;;;;;8.90;8.00;;;;;;;;;;6253225;28;20056;-66
2022/11/08 13:51:38;;;;;;;10.73;7.45;;;;;;;;;;6258439;28;20053;-66
2022/11/08 13:54:51;;;;;;;9.10;6.82;;;;;;;;;;6252362;28;20059;-65
2022/11/08 13:57:58;;;;;;;10.90;6.43;;;;;;;;;;6251832;28;20061;-65
2022/11/08 14:01:03;;;;;;;12.85;7.60;;;;;;;;;;6256758;28;20073;-65
2022/11/08 14:04:23;;;;;;;9.32;6.95;;;;;;;;;;6258329;28;20049;-65
2022/11/08 14:07:28;;;;;;;9.02;6.90;;;;;;;;;;6256526;28;20054;-66
2022/11/08 14:10:35;;;;;;;8.48;5.85;;;;;;;;;;6258694;28;20127;-64
2022/11/08 14:13:44;;;;;;;10.50;6.90;;;;;;;;;;6256001;28;20064;-64
2022/11/08 14:17:15;;;;;;;8.07;6.60;;;;;;;;;;6256546;28;20065;-64
2022/11/08 14:20:23;;;;;;;8.27;6.05;;;;;;;;;;6258538;28;20061;-64
2022/11/08 14:23:28;;;;;;;10.85;6.80;;;;;;;;;;6255557;28;20049;-64
2022/11/08 14:26:31;;;;;;;12.18;6.65;;;;;;;;;;6257708;28;20045;-64
2022/11/08 14:29:32;;;;;;;11.40;6.50;;;;;;;;;;6260195;28;20124;-65
2022/11/08 14:32:35;;;;;;;13.00;6.63;;;;;;;;;;6259852;28;20041;-65
2022/11/08 14:35:37;;;;;;;13.93;6.35;;;;;;;;;;6256732;28;20094;-62
2022/11/08 14:38:46;;;;;;;10.98;7.55;;;;;;;;;;6256875;28;20070;-64
2022/11/08 14:41:52;;;;;;;10.35;6.97;;;;;;;;;;6257728;28;20156;-64
2022/11/08 14:44:55;;;;;;;10.45;6.45;;;;;;;;;;6263282;28;20057;-65
2022/11/08 14:48:02;;;;;;;12.38;7.05;;;;;;;;;;6256375;28;20060;-64
2022/11/08 14:51:05;;;;;;;10.77;7.22;;;;;;;;;;6248379;28;20317;-64
2022/11/08 14:54:15;;;;;;;14.60;8.05;;;;;;;;;;6263934;28;20341;-64
2022/11/08 14:57:41;;;;;;;9.77;6.90;;;;;;;;;;6259773;28;20340;-64
2022/11/08 15:00:43;;;;;;;11.48;6.72;;;;;;;;;;6233405;28;20226;-65
2022/11/08 15:03:53;;;;;;;9.07;6.35;;;;;;;;;;6256829;28;20049;-64
2022/11/08 15:06:56;;;;;;;11.88;6.63;;;;;;;;;;6256440;28;20087;-64
2022/11/08 15:10:06;;;;;;;10.05;6.32;;;;;;;;;;6254138;28;20226;-63
2022/11/08 15:13:10;;;;;;;13.75;6.95;;;;;;;;;;6255950;28;20060;-64
2022/11/08 15:16:12;;;;;;;35.17;8.45;;;;;;;;;;6251592;28;20050;-65
2022/11/08 15:19:35;;;;;;;14.90;7.43;;;;;;;;;;6257480;28;20124;-64
2022/11/08 15:22:37;;;;;;;10.50;6.20;;;;;;;;;;6254930;28;20045;-64
2022/11/08 15:25:39;;;;;;;9.65;6.53;;;;;;;;;;6253719;28;20111;-65
2022/11/08 15:28:40;;;;;;;13.57;6.82;;;;;;;;;;6251181;28;20053;-65
2022/11/08 15:31:43;;;;;;;10.75;6.05;;;;;;;;;;6258642;28;20053;-65
2022/11/08 15:34:47;;;;;;;12.05;6.22;;;;;;;;;;6255368;28;20060;-65
2022/11/08 15:37:49;;;;;;;11.35;6.85;;;;;;;;;;6255549;28;20340;-65
2022/11/08 15:40:52;;;;;;;9.25;7.00;;;;;;;;;;6251365;28;20340;-65
2022/11/08 15:44:09;;;;;;;14.15;7.03;;;;;;;;;;6255190;28;20108;-65
2022/11/08 15:47:35;;;;;;;10.13;7.15;;;;;;;;;;6262264;28;20133;-65
2022/11/08 15:50:38;;;;;;;11.82;7.25;;;;;;;;;;6258341;28;20104;-65
2022/11/08 15:53:40;;;;;;;9.47;7.20;;;;;;;;;;6251520;28;20065;-65
2022/11/08 15:56:42;;;;;;;11.02;7.60;;;;;;;;;;6258858;28;20538;-66
2022/11/08 15:59:44;;;;;;;13.98;7.53;;;;;;;;;;6257063;28;20107;-66
2022/11/08 16:02:46;;;;;;;10.63;7.60;;;;;;;;;;6256571;28;20103;-65
2022/11/08 16:05:49;;;;;;;10.55;6.97;;;;;;;;;;6263018;28;20060;-65
2022/11/08 16:08:50;;;;;;;12.07;9.00;;;;;;;;;;6251229;28;20053;-65
2022/11/08 16:11:52;;;;;;;13.35;7.78;;;;;;;;;;6253302;28;20053;-67
2022/11/08 16:14:56;;;;;;;15.35;9.15;;;;;;;;;;6256989;28;20157;-69
2022/11/08 16:17:58;;;;;;;26.58;15.20;;;;;;;;;;6249695;28;20051;-69
2022/11/08 16:21:02;;;;;;;81.00;41.38;;;;;;;;;;6256143;28;20284;-68
2022/11/08 16:24:03;;;;;;;118.80;58.58;;;;;;;;;;6255453;28;20229;-67
2022/11/08 16:27:05;;;;;;;53.95;26.85;;;;;;;;;;6254627;28;20108;-69
2022/11/08 16:30:13;;;;;;;27.08;17.00;;;;;;;;;;6255092;28;20389;-68
2022/11/08 16:33:19;;;;;;;88.05;49.13;;;;;;;;;;6250966;28;20061;-67
2022/11/08 16:36:25;;;;;;;34.67;21.80;;;;;;;;;;6250192;28;20076;-67
2022/11/08 16:39:27;;;;;;;18.58;11.90;;;;;;;;;;6254541;28;20052;-68
2022/11/08 16:42:28;;;;;;;10.75;8.05;;;;;;;;;;6258048;28;20052;-68
2022/11/08 16:45:33;;;;;;;8.38;6.85;;;;;;;;;;6253400;28;20057;-67
2022/11/08 16:48:38;;;;;;;8.25;5.97;;;;;;;;;;6253799;28;20057;-68
2022/11/08 16:51:41;;;;;;;8.15;5.72;;;;;;;;;;6257363;28;20083;-66
2022/11/08 16:54:42;;;;;;;8.77;6.50;;;;;;;;;;6259170;28;20355;-68
2022/11/08 16:57:44;;;;;;;7.53;5.32;;;;;;;;;;6251881;28;20328;-68
2022/11/08 17:00:46;;;;;;;9.15;6.57;;;;;;;;;;6247097;28;20076;-68
2022/11/08 17:03:48;;;;;;;8.60;5.70;;;;;;;;;;6252599;28;20117;-67
2022/11/08 17:06:51;;;;;;;9.32;6.13;;;;;;;;;;6252762;28;20057;-68
2022/11/08 17:09:52;;;;;;;11.00;5.57;;;;;;;;;;6254619;28;20052;-68
2022/11/08 17:12:54;;;;;;;7.60;5.18;;;;;;;;;;6248265;28;20061;-68
2022/11/08 17:15:56;;;;;;;8.88;5.45;;;;;;;;;;6254361;28;20100;-68
2022/11/08 17:18:58;;;;;;;9.98;5.22;;;;;;;;;;6251700;28;20106;-68
2022/11/08 17:22:01;;;;;;;6.30;4.95;;;;;;;;;;6248657;28;20049;-68
2022/11/08 17:25:02;;;;;;;9.20;5.40;;;;;;;;;;6252551;28;20257;-68
2022/11/08 17:28:04;;;;;;;7.85;5.22;;;;;;;;;;6248528;28;20427;-67
2022/11/08 17:31:13;;;;;;;11.30;5.82;;;;;;;;;;6249253;28;20108;-67
2022/11/08 17:34:15;;;;;;;8.32;5.60;;;;;;;;;;6248381;28;20045;-66
2022/11/08 17:37:18;;;;;;;8.38;5.88;;;;;;;;;;6257840;28;20275;-66
2022/11/08 17:40:20;;;;;;;10.00;5.43;;;;;;;;;;6255153;28;20057;-67
2022/11/08 17:43:21;;;;;;;10.90;6.65;;;;;;;;;;6256144;28;20061;-68
2022/11/08 17:46:23;;;;;;;8.35;5.32;;;;;;;;;;6259603;28;20096;-68
2022/11/08 17:49:25;;;;;;;9.00;5.47;;;;;;;;;;6259182;28;20104;-68
2022/11/08 17:52:27;;;;;;;9.60;5.70;;;;;;;;;;6253160;28;20041;-67
2022/11/08 17:55:29;;;;;;;9.23;4.77;;;;;;;;;;6255124;28;20097;-67
2022/11/08 17:58:32;;;;;;;8.80;5.43;;;;;;;;;;6257096;28;20045;-68
2022/11/08 18:01:34;;;;;;;11.77;5.95;;;;;;;;;;6255465;28;20084;-68
2022/11/08 18:04:35;;;;;;;12.07;6.47;;;;;;;;;;6252048;28;20057;-68
2022/11/08 18:07:38;;;;;;;11.05;7.43;;;;;;;;;;6252652;28;20088;-68
2022/11/08 18:10:44;;;;;;;11.98;6.88;;;;;;;;;;6255994;28;20057;-68
2022/11/08 18:13:46;;;;;;;9.98;7.00;;;;;;;;;;6255449;28;20083;-67
2022/11/08 18:16:48;;;;;;;10.75;8.45;;;;;;;;;;6255367;28;20045;-68
2022/11/08 18:19:50;;;;;;;10.90;7.88;;;;;;;;;;6252914;28;20117;-68
2022/11/08 18:22:53;;;;;;;12.52;8.13;;;;;;;;;;6255778;28;20053;-68
2022/11/08 18:25:55;;;;;;;15.07;8.80;;;;;;;;;;6257925;28;20109;-67
2022/11/08 18:28:56;;;;;;;11.15;7.78;;;;;;;;;;6254146;28;20566;-67
2022/11/08 18:32:00;;;;;;;12.88;8.85;;;;;;;;;;6250402;28;20061;-67